createdAt,value
2022-12-09T00:00:11.981Z,-0.40
2022-12-09T00:05:10.867Z,-0.50
2022-12-09T00:20:09.141Z,-0.80
2022-12-09T00:22:38.023Z,-0.70
2022-12-09T00:27:36.220Z,-0.50
2022-12-09T00:32:36.333Z,-0.80
2022-12-09T00:45:07.840Z,-0.90
2022-12-09T00:47:38.071Z,-0.90
2022-12-09T00:50:08.619Z,-0.70
2022-12-09T00:52:37.336Z,-0.90
2022-12-09T00:55:08.159Z,-0.90
2022-12-09T00:57:36.643Z,-0.70
2022-12-09T01:00:06.923Z,-0.80
2022-12-09T01:02:38.178Z,-0.80
2022-12-09T01:05:07.883Z,-1.70
2022-12-09T01:07:37.563Z,-0.80
2022-12-09T01:10:07.833Z,-0.90
2022-12-09T01:12:36.677Z,-0.90
2022-12-09T01:15:06.975Z,-1.00
2022-12-09T01:20:10.863Z,-1.10
2022-12-09T01:25:09.128Z,-1.20
2022-12-09T01:30:09.194Z,-1.20
2022-12-09T01:32:39.462Z,-1.20
2022-12-09T01:37:38.952Z,-1.20
2022-12-09T01:40:15.514Z,-1.20
2022-12-09T01:45:44.814Z,-1.10
2022-12-09T01:48:17.445Z,-1.00
2022-12-09T01:53:22.687Z,-0.90
2022-12-09T01:55:52.288Z,-0.90
2022-12-09T02:03:24.182Z,-0.80
2022-12-09T02:11:08.993Z,-0.70
2022-12-09T02:13:55.969Z,-0.60
2022-12-09T02:16:29.222Z,-0.60
2022-12-09T02:19:10.065Z,-0.50
2022-12-09T02:21:48.475Z,-0.50
2022-12-09T02:24:28.610Z,-0.40
2022-12-09T02:30:05.967Z,-0.40
2022-12-09T02:33:07.091Z,-0.30
2022-12-09T02:35:45.155Z,-0.30
2022-12-09T02:38:20.373Z,-0.30
2022-12-09T02:40:58.025Z,2.30
2022-12-09T02:43:32.875Z,-0.20
2022-12-09T02:46:04.249Z,-0.20
2022-12-09T02:51:13.557Z,-0.20
2022-12-09T02:53:45.652Z,-0.10
2022-12-09T02:56:16.954Z,0.00
2022-12-09T03:01:25.219Z,-0.10
2022-12-09T03:03:55.868Z,-0.10
2022-12-09T03:06:35.481Z,0.00
2022-12-09T03:11:40.690Z,0.00
2022-12-09T03:14:15.839Z,0.00
2022-12-09T03:16:51.359Z,0.00
2022-12-09T03:19:26.792Z,0.00
2022-12-09T03:22:03.413Z,0.10
2022-12-09T03:27:12.155Z,0.00
2022-12-09T03:29:46.279Z,0.10
2022-12-09T03:34:52.741Z,0.20
2022-12-09T03:37:23.351Z,0.20
2022-12-09T03:39:54.563Z,0.20
2022-12-09T03:42:31.828Z,0.20
2022-12-09T03:45:06.894Z,0.20
2022-12-09T03:50:06.819Z,0.30
2022-12-09T03:52:43.166Z,0.30
2022-12-09T03:55:20.519Z,0.30
2022-12-09T03:57:55.949Z,-0.60
2022-12-09T04:00:25.148Z,0.10
2022-12-09T04:02:54.302Z,0.30
2022-12-09T04:05:22.811Z,0.20
2022-12-09T04:07:52.742Z,0.30
2022-12-09T04:12:50.221Z,0.30
2022-12-09T04:20:17.194Z,0.30
2022-12-09T04:25:15.735Z,1.70
2022-12-09T04:35:12.674Z,0.20
2022-12-09T04:37:41.375Z,0.70
2022-12-09T04:40:11.501Z,0.20
2022-12-09T04:42:41.917Z,0.30
2022-12-09T04:45:11.814Z,0.30
2022-12-09T04:50:09.843Z,0.30
2022-12-09T04:55:08.983Z,0.30
2022-12-09T05:00:10.299Z,0.30
2022-12-09T05:05:09.148Z,0.30
2022-12-09T05:07:38.028Z,0.40
2022-12-09T05:10:09.082Z,0.30
2022-12-09T05:12:38.277Z,0.40
2022-12-09T05:15:09.731Z,0.30
2022-12-09T05:20:10.517Z,0.40
2022-12-09T05:27:37.730Z,0.40
2022-12-09T05:30:10.062Z,0.30
2022-12-09T05:35:09.242Z,0.30
2022-12-09T05:40:08.936Z,0.30
2022-12-09T05:45:13.158Z,0.40
2022-12-09T05:50:12.152Z,0.40
2022-12-09T05:52:41.497Z,-0.80
2022-12-09T06:00:13.277Z,0.40
2022-12-09T06:02:42.756Z,0.40
2022-12-09T06:05:12.083Z,0.30
2022-12-09T06:15:17.027Z,0.20
2022-12-09T06:25:17.378Z,0.20
2022-12-09T06:27:45.792Z,2.20
2022-12-09T06:30:16.819Z,0.20
2022-12-09T06:45:13.337Z,0.20
2022-12-09T06:47:44.373Z,0.20
2022-12-09T06:50:13.980Z,1.70
2022-12-09T06:52:43.038Z,0.30
2022-12-09T06:55:14.336Z,0.20
2022-12-09T06:57:43.211Z,0.20
2022-12-09T07:00:14.071Z,0.10
2022-12-09T07:02:44.465Z,0.20
2022-12-09T07:10:13.067Z,0.20
2022-12-09T07:12:41.847Z,0.20
2022-12-09T07:15:12.325Z,0.30
2022-12-09T07:20:13.305Z,0.30
2022-12-09T07:30:11.597Z,0.40
2022-12-09T07:35:11.688Z,0.30
2022-12-09T07:50:09.293Z,0.40
2022-12-09T07:52:39.054Z,0.40
2022-12-09T07:55:09.912Z,0.40
2022-12-09T08:00:10.059Z,0.50
2022-12-09T08:02:41.548Z,0.50
2022-12-09T08:07:44.458Z,0.50
2022-12-09T08:10:13.998Z,0.50
2022-12-09T08:15:13.158Z,0.60
2022-12-09T08:17:42.043Z,0.60
2022-12-09T08:22:42.128Z,0.70
2022-12-09T08:25:11.638Z,0.70
2022-12-09T08:37:45.868Z,0.80
2022-12-09T08:40:15.467Z,0.90
2022-12-09T08:45:13.224Z,1.00
2022-12-09T08:47:42.973Z,1.00
2022-12-09T08:55:12.884Z,1.10
2022-12-09T09:00:12.144Z,1.10
2022-12-09T09:02:41.270Z,1.20
2022-12-09T09:05:10.780Z,1.20
2022-12-09T09:07:39.904Z,1.30
2022-12-09T09:10:10.601Z,1.60
2022-12-09T09:12:43.821Z,1.60
2022-12-09T09:15:14.473Z,1.60
2022-12-09T09:17:48.117Z,1.60
2022-12-09T09:22:49.373Z,1.80
2022-12-09T09:25:18.384Z,2.00
2022-12-09T09:27:48.477Z,2.10
2022-12-09T09:32:46.285Z,2.20
2022-12-09T09:40:14.901Z,2.20
2022-12-09T09:42:51.053Z,2.30
2022-12-09T09:45:23.508Z,2.20
2022-12-09T09:47:58.423Z,2.20
2022-12-09T09:50:34.685Z,2.10
2022-12-09T09:53:20.880Z,2.10
2022-12-09T09:55:57.654Z,2.00
2022-12-09T09:58:42.800Z,2.00
2022-12-09T10:01:17.129Z,2.00
2022-12-09T10:04:00.705Z,2.00
2022-12-09T10:09:21.259Z,2.00
2022-12-09T10:12:01.974Z,1.90
2022-12-09T10:14:52.292Z,1.80
2022-12-09T10:17:29.263Z,1.80
2022-12-09T10:20:07.576Z,1.80
2022-12-09T10:22:45.762Z,1.80
2022-12-09T10:25:23.882Z,1.70
2022-12-09T10:28:00.998Z,1.70
2022-12-09T10:30:37.279Z,1.50
2022-12-09T10:33:13.687Z,1.60
2022-12-09T10:38:14.896Z,1.90
2022-12-09T10:40:59.201Z,1.80
2022-12-09T10:43:36.246Z,1.80
2022-12-09T10:46:19.724Z,1.80
2022-12-09T10:48:58.950Z,2.30
2022-12-09T10:51:30.330Z,1.70
2022-12-09T10:54:03.521Z,1.90
2022-12-09T10:56:35.848Z,1.80
2022-12-09T10:59:19.574Z,1.90
2022-12-09T11:01:55.667Z,1.90
2022-12-09T11:04:28.077Z,1.90
2022-12-09T11:07:02.935Z,1.90
2022-12-09T11:09:36.735Z,2.00
2022-12-09T11:12:08.619Z,2.00
2022-12-09T11:14:41.414Z,2.30
2022-12-09T11:17:20.235Z,2.30
2022-12-09T11:19:54.325Z,2.30
2022-12-09T11:22:39.563Z,2.20
2022-12-09T11:25:27.217Z,2.40
2022-12-09T11:27:59.072Z,2.30
2022-12-09T11:38:38.712Z,2.10
2022-12-09T11:41:38.769Z,2.10
2022-12-09T11:44:25.916Z,2.10
2022-12-09T11:47:02.410Z,2.10
2022-12-09T11:49:37.489Z,2.10
2022-12-09T11:52:27.308Z,2.00
2022-12-09T11:55:13.117Z,2.00
2022-12-09T11:57:50.474Z,2.10
2022-12-09T12:00:23.694Z,2.10
2022-12-09T12:05:38.816Z,2.00
2022-12-09T12:08:19.998Z,2.10
2022-12-09T12:10:55.547Z,2.10
2022-12-09T12:13:29.799Z,2.10
2022-12-09T12:16:09.805Z,2.10
2022-12-09T12:21:57.129Z,2.00
2022-12-09T12:24:55.572Z,2.10
2022-12-09T12:27:47.825Z,2.20
2022-12-09T12:30:21.513Z,2.00
2022-12-09T12:34:00.273Z,2.10
2022-12-09T12:36:11.505Z,2.00
2022-12-09T12:39:00.076Z,2.10
2022-12-09T12:44:44.261Z,2.30
2022-12-09T12:47:21.861Z,2.30
2022-12-09T12:50:15.413Z,1.50
2022-12-09T12:52:56.827Z,2.30
2022-12-09T12:55:48.899Z,2.30
2022-12-09T13:03:47.622Z,1.20
2022-12-09T13:06:23.884Z,2.30
2022-12-09T13:09:03.107Z,2.40
2022-12-09T13:11:50.108Z,2.40
2022-12-09T13:14:26.203Z,2.40
2022-12-09T13:16:55.273Z,2.40
2022-12-09T13:19:32.632Z,2.40
2022-12-09T13:24:41.196Z,2.40
2022-12-09T13:27:19.959Z,2.40
2022-12-09T13:29:57.380Z,2.40
2022-12-09T13:33:03.202Z,2.40
2022-12-09T13:38:28.178Z,2.30
2022-12-09T13:43:31.607Z,2.20
2022-12-09T13:46:02.742Z,2.20
2022-12-09T13:48:49.061Z,2.10
2022-12-09T13:51:19.085Z,2.00
2022-12-09T13:53:53.674Z,2.00
2022-12-09T13:56:32.416Z,2.00
2022-12-09T13:59:40.004Z,2.00
2022-12-09T14:02:23.751Z,1.90
2022-12-09T14:05:06.688Z,1.90
2022-12-09T14:07:43.255Z,1.80
2022-12-09T14:10:40.896Z,1.80
2022-12-09T14:13:33.005Z,1.70
2022-12-09T14:16:34.188Z,1.80
2022-12-09T14:19:46.122Z,1.70
2022-12-09T14:22:35.370Z,1.60
2022-12-09T14:25:51.969Z,1.70
2022-12-09T14:28:56.725Z,1.70
2022-12-09T14:31:49.560Z,1.60
2022-12-09T14:37:46.737Z,1.60
2022-12-09T14:40:33.880Z,1.50
2022-12-09T14:43:16.774Z,1.50
2022-12-09T14:45:55.401Z,0.80
2022-12-09T14:51:10.862Z,1.30
2022-12-09T14:56:08.873Z,1.70
2022-12-09T15:01:07.985Z,1.30
2022-12-09T15:03:45.201Z,1.20
2022-12-09T15:06:20.490Z,1.20
2022-12-09T15:08:50.977Z,-0.30
2022-12-09T15:11:25.859Z,1.20
2022-12-09T15:14:17.975Z,1.10
2022-12-09T15:19:51.574Z,1.00
2022-12-09T15:22:22.842Z,1.00
2022-12-09T15:27:24.325Z,1.00
2022-12-09T15:32:27.457Z,1.00
2022-12-09T15:35:17.370Z,1.00
2022-12-09T15:37:47.409Z,1.00
2022-12-09T15:40:22.402Z,1.00
2022-12-09T15:42:55.500Z,1.00
2022-12-09T15:45:28.056Z,1.00
2022-12-09T15:48:02.700Z,1.10
2022-12-09T15:50:37.740Z,1.10
2022-12-09T15:53:16.839Z,1.10
2022-12-09T15:55:51.793Z,1.00
2022-12-09T16:00:54.895Z,1.00
2022-12-09T16:03:32.396Z,1.00
2022-12-09T16:06:07.312Z,1.00
2022-12-09T16:08:40.443Z,1.10
2022-12-09T16:11:08.966Z,1.00
2022-12-09T16:13:37.785Z,1.00
2022-12-09T16:16:27.147Z,0.90
2022-12-09T16:18:56.617Z,0.90
2022-12-09T16:21:32.857Z,0.90
2022-12-09T16:24:13.251Z,0.90
2022-12-09T16:26:48.325Z,0.90
2022-12-09T16:29:25.195Z,0.90
2022-12-09T16:32:27.004Z,0.90
2022-12-09T16:35:00.175Z,0.80
2022-12-09T16:37:40.796Z,0.80
2022-12-09T16:41:12.723Z,0.80
2022-12-09T16:43:58.541Z,0.80
2022-12-09T16:46:39.434Z,0.80
2022-12-09T16:51:39.809Z,0.90
2022-12-09T16:54:20.123Z,0.90
2022-12-09T17:04:20.418Z,0.90
2022-12-09T17:26:42.716Z,0.70
2022-12-09T17:31:39.792Z,-0.80
2022-12-09T17:44:05.445Z,0.60
2022-12-09T17:49:03.349Z,0.60
2022-12-09T17:54:05.949Z,0.60
2022-12-09T18:04:11.531Z,0.70
2022-12-09T18:06:43.308Z,0.70
2022-12-09T18:09:15.340Z,0.60
2022-12-09T18:11:44.570Z,0.60
2022-12-09T18:14:15.335Z,0.70
2022-12-09T18:29:14.646Z,0.70
2022-12-09T18:31:45.615Z,0.60
2022-12-09T18:34:14.163Z,0.60
2022-12-09T18:36:42.827Z,0.70
2022-12-09T18:41:39.807Z,0.60
2022-12-09T18:48:39.615Z,0.80
2022-12-09T19:37:22.565Z,0.80
2022-12-09T19:56:19.394Z,0.80
2022-12-09T19:58:49.629Z,0.80
2022-12-09T20:03:57.211Z,0.90
2022-12-09T20:11:26.385Z,0.90
2022-12-09T20:13:55.116Z,0.90
2022-12-09T20:23:55.299Z,0.90
2022-12-09T20:26:26.430Z,0.90
2022-12-09T20:28:58.189Z,0.90
2022-12-09T20:34:01.917Z,1.00
2022-12-09T20:36:34.548Z,0.90
2022-12-09T20:39:11.222Z,0.90
2022-12-09T20:41:41.781Z,0.70
2022-12-09T20:44:12.452Z,0.80
2022-12-09T20:46:46.721Z,0.90
2022-12-09T20:59:13.755Z,0.90
2022-12-09T21:04:16.448Z,0.90
2022-12-09T21:09:18.615Z,0.90
2022-12-09T21:11:50.687Z,0.90
2022-12-09T21:14:20.610Z,1.00
2022-12-09T21:16:51.391Z,1.00
2022-12-09T21:19:25.066Z,1.00
2022-12-09T21:21:54.685Z,1.00
2022-12-09T21:24:24.713Z,1.00
2022-12-09T21:32:02.640Z,0.90
2022-12-09T21:37:00.119Z,1.00
2022-12-09T21:39:29.417Z,0.90
2022-12-09T21:49:26.162Z,0.90
2022-12-09T21:56:52.357Z,0.90
2022-12-09T22:14:18.581Z,1.00
2022-12-09T22:16:47.806Z,0.90
2022-12-09T22:19:19.145Z,0.90
2022-12-09T22:21:49.987Z,0.80
2022-12-09T22:31:47.947Z,2.90
2022-12-09T22:34:20.742Z,1.00
2022-12-09T22:36:51.363Z,0.90
2022-12-09T22:39:22.971Z,-1.00
2022-12-09T22:41:52.533Z,1.00
2022-12-09T22:49:19.792Z,0.90
2022-12-09T22:54:19.389Z,1.00
2022-12-09T22:56:48.131Z,2.30
2022-12-09T23:01:49.029Z,0.90
2022-12-09T23:04:22.799Z,0.80
2022-12-09T23:09:25.537Z,0.90
2022-12-09T23:11:54.722Z,0.90
2022-12-09T23:46:49.762Z,0.90
2022-12-09T23:49:18.848Z,0.90
2022-12-09T23:56:50.670Z,0.90
2022-12-09T23:59:21.820Z,1.00
